Terminal Aerodrome Forecast
Issued by NWS

Home | Current Version | Previous Version | Text Only | Print | Product List | Glossary On
Versions: 1 2 3 4 5 6 7 8 9 10 11 12 13 14
000
FTUS43 KTOP 161700
TAFMHK
TAF
KMHK 161726Z 1618/1718 14007KT P6SM SCT050
     FM162300 12004KT P6SM BKN050
     FM170800 19006KT 6SM BR VCTS SCT015 BKN040CB=

USA.gov is the U.S. government's official web portal to all federal, state and local government web resources and services.